sensor_id;sensor_type;location;lat;lon;timestamp;pressure;altitude;pressure_sealevel;temperature;humidity
71976;BME280;68326;52.124;5.424;2023-05-01T00:02:08;101890.97;;;9.64;86.98
71976;BME280;68326;52.124;5.424;2023-05-01T00:04:34;101882.31;;;9.65;88.21
71976;BME280;68326;52.124;5.424;2023-05-01T00:07:01;101884.84;;;9.67;88.09
71976;BME280;68326;52.124;5.424;2023-05-01T00:09:28;101879.59;;;9.68;87.77
71976;BME280;68326;52.124;5.424;2023-05-01T00:11:54;101870.94;;;9.69;88.30
71976;BME280;68326;52.124;5.424;2023-05-01T00:14:20;101876.13;;;9.69;87.08
71976;BME280;68326;52.124;5.424;2023-05-01T00:16:47;101874.25;;;9.73;88.53
71976;BME280;68326;52.124;5.424;2023-05-01T00:19:14;101869.78;;;9.78;88.67
71976;BME280;68326;52.124;5.424;2023-05-01T00:21:47;101856.78;;;9.78;87.89
71976;BME280;68326;52.124;5.424;2023-05-01T00:24:14;101856.94;;;9.73;88.83
71976;BME280;68326;52.124;5.424;2023-05-01T00:26:42;101853.38;;;9.76;87.57
71976;BME280;68326;52.124;5.424;2023-05-01T00:29:09;101849.84;;;9.78;88.99
71976;BME280;68326;52.124;5.424;2023-05-01T00:31:35;101838.53;;;9.79;88.31
71976;BME280;68326;52.124;5.424;2023-05-01T00:34:02;101842.88;;;9.79;87.98
71976;BME280;68326;52.124;5.424;2023-05-01T00:36:30;101849.94;;;9.75;88.40
71976;BME280;68326;52.124;5.424;2023-05-01T00:38:57;101844.81;;;9.72;87.16
71976;BME280;68326;52.124;5.424;2023-05-01T00:41:23;101841.34;;;9.73;87.40
71976;BME280;68326;52.124;5.424;2023-05-01T00:43:50;101829.22;;;9.72;87.67
71976;BME280;68326;52.124;5.424;2023-05-01T00:46:17;101829.47;;;9.65;85.94
71976;BME280;68326;52.124;5.424;2023-05-01T00:48:44;101826.19;;;9.58;87.33
71976;BME280;68326;52.124;5.424;2023-05-01T00:51:11;101821.25;;;9.50;86.54
71976;BME280;68326;52.124;5.424;2023-05-01T00:53:42;101812.72;;;9.45;86.02
71976;BME280;68326;52.124;5.424;2023-05-01T00:56:08;101815.63;;;9.36;86.26
71976;BME280;68326;52.124;5.424;2023-05-01T00:58:37;101812.22;;;9.34;85.88
71976;BME280;68326;52.124;5.424;2023-05-01T01:01:03;101808.09;;;9.27;86.83
71976;BME280;68326;52.124;5.424;2023-05-01T01:03:30;101807.38;;;9.22;87.21
71976;BME280;68326;52.124;5.424;2023-05-01T01:06:06;101804.78;;;9.22;88.09
71976;BME280;68326;52.124;5.424;2023-05-01T01:11:39;101796.09;;;9.23;88.63
71976;BME280;68326;52.124;5.424;2023-05-01T01:14:16;101789.22;;;9.20;88.03
71976;BME280;68326;52.124;5.424;2023-05-01T01:16:50;101785.88;;;9.16;87.77
71976;BME280;68326;52.124;5.424;2023-05-01T01:21:48;101776.31;;;9.18;89.04
71976;BME280;68326;52.124;5.424;2023-05-01T01:24:25;101775.50;;;9.16;87.99
71976;BME280;68326;52.124;5.424;2023-05-01T01:30:33;101768.28;;;8.96;86.91
71976;BME280;68326;52.124;5.424;2023-05-01T01:36:11;101759.66;;;8.96;88.52
71976;BME280;68326;52.124;5.424;2023-05-01T01:38:59;101758.03;;;8.92;87.79
71976;BME280;68326;52.124;5.424;2023-05-01T01:41:32;101750.16;;;8.95;88.95
71976;BME280;68326;52.124;5.424;2023-05-01T01:44:15;101743.22;;;8.95;88.51
71976;BME280;68326;52.124;5.424;2023-05-01T01:46:47;101740.13;;;8.83;88.22
71976;BME280;68326;52.124;5.424;2023-05-01T01:49:21;101740.97;;;8.83;88.98
71976;BME280;68326;52.124;5.424;2023-05-01T01:51:50;101731.44;;;8.84;89.58
71976;BME280;68326;52.124;5.424;2023-05-01T01:54:22;101731.41;;;8.85;89.65
71976;BME280;68326;52.124;5.424;2023-05-01T01:56:52;101723.63;;;8.85;89.52
71976;BME280;68326;52.124;5.424;2023-05-01T01:59:22;101726.22;;;8.85;90.17
71976;BME280;68326;52.124;5.424;2023-05-01T02:01:50;101719.22;;;8.87;89.87
71976;BME280;68326;52.124;5.424;2023-05-01T02:04:18;101713.09;;;8.90;90.60
71976;BME280;68326;52.124;5.424;2023-05-01T02:06:47;101716.47;;;8.93;90.29
71976;BME280;68326;52.124;5.424;2023-05-01T02:09:15;101705.22;;;8.93;89.55
71976;BME280;68326;52.124;5.424;2023-05-01T02:11:44;101710.34;;;8.94;88.99
71976;BME280;68326;52.124;5.424;2023-05-01T02:14:14;101693.91;;;8.95;89.23
71976;BME280;68326;52.124;5.424;2023-05-01T02:16:42;101693.06;;;8.95;89.93
71976;BME280;68326;52.124;5.424;2023-05-01T02:19:10;101687.88;;;8.95;89.89
71976;BME280;68326;52.124;5.424;2023-05-01T02:21:39;101697.34;;;8.96;90.41
71976;BME280;68326;52.124;5.424;2023-05-01T02:24:07;101693.78;;;8.98;88.86
71976;BME280;68326;52.124;5.424;2023-05-01T02:26:42;101692.00;;;9.01;88.59
71976;BME280;68326;52.124;5.424;2023-05-01T02:29:13;101681.13;;;8.88;89.87
71976;BME280;68326;52.124;5.424;2023-05-01T02:31:40;101682.75;;;8.92;89.55
71976;BME280;68326;52.124;5.424;2023-05-01T02:34:06;101680.16;;;8.92;89.25
71976;BME280;68326;52.124;5.424;2023-05-01T02:36:33;101679.50;;;8.85;88.54
71976;BME280;68326;52.124;5.424;2023-05-01T02:39:00;101681.13;;;8.88;89.61
71976;BME280;68326;52.124;5.424;2023-05-01T02:41:27;101678.41;;;8.92;89.83
71976;BME280;68326;52.124;5.424;2023-05-01T02:43:59;101680.16;;;8.92;89.67
71976;BME280;68326;52.124;5.424;2023-05-01T02:46:26;101669.94;;;8.86;89.72
71976;BME280;68326;52.124;5.424;2023-05-01T02:48:55;101671.66;;;8.87;89.49
71976;BME280;68326;52.124;5.424;2023-05-01T02:51:23;101666.56;;;8.84;89.56
71976;BME280;68326;52.124;5.424;2023-05-01T02:53:50;101663.09;;;8.85;90.47
71976;BME280;68326;52.124;5.424;2023-05-01T02:56:16;101663.03;;;8.86;90.00
71976;BME280;68326;52.124;5.424;2023-05-01T02:58:43;101660.53;;;8.83;91.10
71976;BME280;68326;52.124;5.424;2023-05-01T03:01:09;101659.75;;;8.80;90.50
71976;BME280;68326;52.124;5.424;2023-05-01T03:03:36;101655.53;;;8.75;90.48
71976;BME280;68326;52.124;5.424;2023-05-01T03:06:03;101650.50;;;8.71;90.16
71976;BME280;68326;52.124;5.424;2023-05-01T03:08:30;101653.91;;;8.73;90.50
71976;BME280;68326;52.124;5.424;2023-05-01T03:10:56;101645.13;;;8.77;91.19
71976;BME280;68326;52.124;5.424;2023-05-01T03:13:22;101643.25;;;8.82;91.39
71976;BME280;68326;52.124;5.424;2023-05-01T03:15:49;101639.88;;;8.80;91.24
71976;BME280;68326;52.124;5.424;2023-05-01T03:18:16;101643.44;;;8.76;90.91
71976;BME280;68326;52.124;5.424;2023-05-01T03:20:50;101634.75;;;8.77;91.33
71976;BME280;68326;52.124;5.424;2023-05-01T03:23:17;101633.91;;;8.76;91.16
71976;BME280;68326;52.124;5.424;2023-05-01T03:25:44;101633.81;;;8.80;91.51
71976;BME280;68326;52.124;5.424;2023-05-01T03:28:10;101627.78;;;8.79;91.52
71976;BME280;68326;52.124;5.424;2023-05-01T03:30:37;101627.78;;;8.79;90.93
71976;BME280;68326;52.124;5.424;2023-05-01T03:33:03;101624.34;;;8.78;91.05
71976;BME280;68326;52.124;5.424;2023-05-01T03:35:30;101620.03;;;8.77;91.13
71976;BME280;68326;52.124;5.424;2023-05-01T03:37:56;101621.75;;;8.78;90.41
71976;BME280;68326;52.124;5.424;2023-05-01T03:40:23;101613.03;;;8.80;90.86
71976;BME280;68326;52.124;5.424;2023-05-01T03:42:49;101613.66;;;8.88;91.39
71976;BME280;68326;52.124;5.424;2023-05-01T03:45:16;101606.78;;;8.87;91.17
71976;BME280;68326;52.124;5.424;2023-05-01T03:47:42;101606.88;;;8.84;91.33
71976;BME280;68326;52.124;5.424;2023-05-01T03:50:09;101607.81;;;8.81;91.16
71976;BME280;68326;52.124;5.424;2023-05-01T03:52:36;101611.19;;;8.85;91.13
71976;BME280;68326;52.124;5.424;2023-05-01T03:55:03;101616.19;;;8.91;91.37
71976;BME280;68326;52.124;5.424;2023-05-01T03:57:29;101606.41;;;8.99;90.85
71976;BME280;68326;52.124;5.424;2023-05-01T03:59:56;101602.59;;;9.09;90.24
71976;BME280;68326;52.124;5.424;2023-05-01T04:02:23;101600.75;;;9.13;90.64
71976;BME280;68326;52.124;5.424;2023-05-01T04:04:49;101597.38;;;9.11;90.04
71976;BME280;68326;52.124;5.424;2023-05-01T04:07:16;101593.78;;;9.15;89.36
71976;BME280;68326;52.124;5.424;2023-05-01T04:09:42;101599.72;;;9.18;88.13
71976;BME280;68326;52.124;5.424;2023-05-01T04:12:09;101605.59;;;9.24;88.37
71976;BME280;68326;52.124;5.424;2023-05-01T04:14:35;101596.03;;;9.26;88.93
71976;BME280;68326;52.124;5.424;2023-05-01T04:17:02;101592.66;;;9.22;88.88
71976;BME280;68326;52.124;5.424;2023-05-01T04:19:28;101594.56;;;9.17;89.72
71976;BME280;68326;52.124;5.424;2023-05-01T04:21:54;101592.28;;;9.08;88.51
71976;BME280;68326;52.124;5.424;2023-05-01T04:24:21;101594.16;;;9.03;89.33
71976;BME280;68326;52.124;5.424;2023-05-01T04:26:48;101596.88;;;9.00;88.87
71976;BME280;68326;52.124;5.424;2023-05-01T04:29:15;101584.84;;;8.97;89.11
71976;BME280;68326;52.124;5.424;2023-05-01T04:31:41;101593.47;;;8.97;89.39
71976;BME280;68326;52.124;5.424;2023-05-01T04:34:08;101587.28;;;9.02;89.66
71976;BME280;68326;52.124;5.424;2023-05-01T04:36:35;101588.81;;;9.07;89.92
71976;BME280;68326;52.124;5.424;2023-05-01T04:39:01;101587.69;;;9.16;89.55
71976;BME280;68326;52.124;5.424;2023-05-01T04:41:28;101585.75;;;9.23;88.92
71976;BME280;68326;52.124;5.424;2023-05-01T04:43:55;101588.28;;;9.24;88.90
71976;BME280;68326;52.124;5.424;2023-05-01T04:46:21;101587.34;;;9.27;88.54
71976;BME280;68326;52.124;5.424;2023-05-01T04:48:47;101592.44;;;9.30;87.60
71976;BME280;68326;52.124;5.424;2023-05-01T04:51:14;101588.78;;;9.35;87.90
71976;BME280;68326;52.124;5.424;2023-05-01T04:53:41;101593.72;;;9.43;86.14
71976;BME280;68326;52.124;5.424;2023-05-01T04:56:07;101598.69;;;9.49;86.41
71976;BME280;68326;52.124;5.424;2023-05-01T04:58:33;101589.06;;;9.53;84.33
71976;BME280;68326;52.124;5.424;2023-05-01T05:01:00;101598.34;;;9.60;84.08
71976;BME280;68326;52.124;5.424;2023-05-01T05:03:26;101597.28;;;9.66;84.29
71976;BME280;68326;52.124;5.424;2023-05-01T05:05:53;101597.16;;;9.69;83.53
71976;BME280;68326;52.124;5.424;2023-05-01T05:08:20;101597.25;;;9.67;85.38
71976;BME280;68326;52.124;5.424;2023-05-01T05:10:46;101589.56;;;9.63;85.76
71976;BME280;68326;52.124;5.424;2023-05-01T05:13:12;101593.13;;;9.60;86.45
71976;BME280;68326;52.124;5.424;2023-05-01T05:15:39;101588.94;;;9.56;85.81
71976;BME280;68326;52.124;5.424;2023-05-01T05:18:05;101591.50;;;9.57;87.07
71976;BME280;68326;52.124;5.424;2023-05-01T05:20:32;101582.69;;;9.62;86.94
71976;BME280;68326;52.124;5.424;2023-05-01T05:23:02;101586.88;;;9.66;85.89
71976;BME280;68326;52.124;5.424;2023-05-01T05:25:29;101591.84;;;9.73;85.52
71976;BME280;68326;52.124;5.424;2023-05-01T05:27:55;101591.59;;;9.79;84.45
71976;BME280;68326;52.124;5.424;2023-05-01T05:30:22;101588.78;;;9.86;83.81
71976;BME280;68326;52.124;5.424;2023-05-01T05:32:48;101586.13;;;9.87;84.03
71976;BME280;68326;52.124;5.424;2023-05-01T05:35:15;101589.53;;;9.89;83.00
71976;BME280;68326;52.124;5.424;2023-05-01T05:37:41;101585.88;;;9.95;84.18
71976;BME280;68326;52.124;5.424;2023-05-01T05:40:11;101585.78;;;9.96;83.31
71976;BME280;68326;52.124;5.424;2023-05-01T05:42:38;101580.38;;;10.03;82.19
71976;BME280;68326;52.124;5.424;2023-05-01T05:45:05;101578.41;;;10.09;81.27
71976;BME280;68326;52.124;5.424;2023-05-01T05:47:32;101578.13;;;10.17;81.54
71976;BME280;68326;52.124;5.424;2023-05-01T05:49:58;101572.03;;;10.18;80.56
71976;BME280;68326;52.124;5.424;2023-05-01T05:52:25;101568.53;;;10.19;79.61
71976;BME280;68326;52.124;5.424;2023-05-01T05:54:51;101573.59;;;10.22;81.65
71976;BME280;68326;52.124;5.424;2023-05-01T05:57:17;101571.97;;;10.19;80.98
71976;BME280;68326;52.124;5.424;2023-05-01T05:59:44;101571.91;;;10.21;83.06
71976;BME280;68326;52.124;5.424;2023-05-01T06:02:10;101567.50;;;10.23;82.04
71976;BME280;68326;52.124;5.424;2023-05-01T06:04:37;101568.28;;;10.25;82.02
71976;BME280;68326;52.124;5.424;2023-05-01T06:07:03;101568.28;;;10.25;80.96
71976;BME280;68326;52.124;5.424;2023-05-01T06:09:31;101576.03;;;10.27;81.00
71976;BME280;68326;52.124;5.424;2023-05-01T06:11:58;101570.75;;;10.30;78.90
71976;BME280;68326;52.124;5.424;2023-05-01T06:14:25;101567.00;;;10.37;80.59
71976;BME280;68326;52.124;5.424;2023-05-01T06:16:51;101571.25;;;10.39;80.36
71976;BME280;68326;52.124;5.424;2023-05-01T06:19:17;101565.88;;;10.44;80.25
71976;BME280;68326;52.124;5.424;2023-05-01T06:21:44;101564.13;;;10.45;79.17
71976;BME280;68326;52.124;5.424;2023-05-01T06:24:10;101563.09;;;10.49;78.70
71976;BME280;68326;52.124;5.424;2023-05-01T06:26:37;101562.06;;;10.53;78.80
71976;BME280;68326;52.124;5.424;2023-05-01T06:29:04;101554.13;;;10.56;76.14
71976;BME280;68326;52.124;5.424;2023-05-01T06:31:30;101557.38;;;10.63;77.20
71976;BME280;68326;52.124;5.424;2023-05-01T06:33:57;101551.06;;;10.68;78.19
71976;BME280;68326;52.124;5.424;2023-05-01T06:36:23;101553.41;;;10.74;78.02
71976;BME280;68326;52.124;5.424;2023-05-01T06:38:50;101555.72;;;10.82;77.80
71976;BME280;68326;52.124;5.424;2023-05-01T06:41:16;101556.19;;;10.92;77.24
71976;BME280;68326;52.124;5.424;2023-05-01T06:43:43;101553.22;;;11.01;76.83
71976;BME280;68326;52.124;5.424;2023-05-01T06:46:09;101558.94;;;11.09;76.99
71976;BME280;68326;52.124;5.424;2023-05-01T06:48:36;101552.66;;;11.15;76.97
71976;BME280;68326;52.124;5.424;2023-05-01T06:51:02;101551.63;;;11.19;76.51
71976;BME280;68326;52.124;5.424;2023-05-01T06:53:29;101554.16;;;11.20;75.16
71976;BME280;68326;52.124;5.424;2023-05-01T06:55:55;101552.53;;;11.18;75.59
71976;BME280;68326;52.124;5.424;2023-05-01T06:58:22;101550.88;;;11.15;75.53
71976;BME280;68326;52.124;5.424;2023-05-01T07:00:50;101552.66;;;11.15;76.12
71976;BME280;68326;52.124;5.424;2023-05-01T07:03:17;101552.34;;;11.22;76.70
71976;BME280;68326;52.124;5.424;2023-05-01T07:05:44;101547.72;;;11.29;76.36
71976;BME280;68326;52.124;5.424;2023-05-01T07:08:10;101551.06;;;11.33;75.94
71976;BME280;68326;52.124;5.424;2023-05-01T07:10:37;101550.00;;;11.37;76.78
71976;BME280;68326;52.124;5.424;2023-05-01T07:13:07;101549.81;;;11.41;77.94
71976;BME280;68326;52.124;5.424;2023-05-01T07:15:33;101547.06;;;11.45;75.40
71976;BME280;68326;52.124;5.424;2023-05-01T07:18:00;101546.84;;;11.49;75.09
71976;BME280;68326;52.124;5.424;2023-05-01T07:20:28;101544.84;;;11.56;77.07
71976;BME280;68326;52.124;5.424;2023-05-01T07:22:55;101544.84;;;11.56;76.34
71976;BME280;68326;52.124;5.424;2023-05-01T07:25:21;101541.28;;;11.58;76.40
71976;BME280;68326;52.124;5.424;2023-05-01T07:27:48;101543.63;;;11.65;76.16
71976;BME280;68326;52.124;5.424;2023-05-01T07:30:14;101550.25;;;11.72;75.19
71976;BME280;68326;52.124;5.424;2023-05-01T07:32:41;101552.31;;;11.84;77.20
71976;BME280;68326;52.124;5.424;2023-05-01T07:35:07;101549.31;;;11.93;76.41
71976;BME280;68326;52.124;5.424;2023-05-01T07:37:34;101552.84;;;11.92;73.24
71976;BME280;68326;52.124;5.424;2023-05-01T07:40:00;101547.50;;;11.95;73.72
71976;BME280;68326;52.124;5.424;2023-05-01T07:42:27;101547.66;;;11.92;73.06
71976;BME280;68326;52.124;5.424;2023-05-01T07:44:54;101551.78;;;11.96;73.68
71976;BME280;68326;52.124;5.424;2023-05-01T07:47:20;101545.50;;;12.00;73.85
71976;BME280;68326;52.124;5.424;2023-05-01T07:49:47;101545.22;;;12.07;73.93
71976;BME280;68326;52.124;5.424;2023-05-01T07:52:13;101543.28;;;12.12;74.41
71976;BME280;68326;52.124;5.424;2023-05-01T07:54:40;101542.22;;;12.16;72.78
71976;BME280;68326;52.124;5.424;2023-05-01T07:57:07;101546.50;;;12.17;73.33
71976;BME280;68326;52.124;5.424;2023-05-01T07:59:33;101543.91;;;12.17;72.68
71976;BME280;68326;52.124;5.424;2023-05-01T08:02:00;101542.28;;;12.14;73.38
71976;BME280;68326;52.124;5.424;2023-05-01T08:04:27;101541.22;;;12.18;73.83
71976;BME280;68326;52.124;5.424;2023-05-01T08:06:53;101544.56;;;12.22;73.15
71976;BME280;68326;52.124;5.424;2023-05-01T08:09:20;101544.47;;;12.23;73.15
71976;BME280;68326;52.124;5.424;2023-05-01T08:11:46;101547.00;;;12.25;72.16
71976;BME280;68326;52.124;5.424;2023-05-01T08:14:12;101543.41;;;12.28;72.78
71976;BME280;68326;52.124;5.424;2023-05-01T08:16:40;101548.41;;;12.32;72.99
71976;BME280;68326;52.124;5.424;2023-05-01T08:19:07;101549.84;;;12.39;72.74
71976;BME280;68326;52.124;5.424;2023-05-01T08:21:33;101550.84;;;12.37;72.02
71976;BME280;68326;52.124;5.424;2023-05-01T08:24:00;101548.22;;;12.37;70.98
71976;BME280;68326;52.124;5.424;2023-05-01T08:26:26;101547.28;;;12.38;71.23
71976;BME280;68326;52.124;5.424;2023-05-01T08:28:52;101548.22;;;12.37;72.44
71976;BME280;68326;52.124;5.424;2023-05-01T08:31:19;101546.28;;;12.40;72.45
71976;BME280;68326;52.124;5.424;2023-05-01T08:33:46;101546.94;;;12.46;73.29
71976;BME280;68326;52.124;5.424;2023-05-01T08:36:13;101546.84;;;12.47;73.08
71976;BME280;68326;52.124;5.424;2023-05-01T08:38:39;101552.06;;;12.47;73.87
71976;BME280;68326;52.124;5.424;2023-05-01T08:41:06;101547.91;;;12.43;72.95
71976;BME280;68326;52.124;5.424;2023-05-01T08:43:33;101546.84;;;12.47;72.25
71976;BME280;68326;52.124;5.424;2023-05-01T08:46:00;101544.09;;;12.50;72.76
71976;BME280;68326;52.124;5.424;2023-05-01T08:48:27;101553.56;;;12.53;72.16
71976;BME280;68326;52.124;5.424;2023-05-01T08:50:55;101554.03;;;12.61;74.35
71976;BME280;68326;52.124;5.424;2023-05-01T08:53:26;101549.44;;;12.66;74.19
71976;BME280;68326;52.124;5.424;2023-05-01T08:55:54;101548.38;;;12.70;74.20
71976;BME280;68326;52.124;5.424;2023-05-01T08:58:23;101554.59;;;12.68;73.31
71976;BME280;68326;52.124;5.424;2023-05-01T09:00:51;101547.81;;;12.63;73.44
71976;BME280;68326;52.124;5.424;2023-05-01T09:03:19;101547.75;;;12.65;74.19
71976;BME280;68326;52.124;5.424;2023-05-01T09:05:46;101548.38;;;12.70;75.32
71976;BME280;68326;52.124;5.424;2023-05-01T09:08:12;101545.47;;;12.76;73.86
71976;BME280;68326;52.124;5.424;2023-05-01T09:10:44;101552.94;;;12.84;73.12
71976;BME280;68326;52.124;5.424;2023-05-01T09:13:11;101551.00;;;12.88;73.06
71976;BME280;68326;52.124;5.424;2023-05-01T09:15:37;101547.25;;;12.93;72.77
71976;BME280;68326;52.124;5.424;2023-05-01T09:18:04;101543.41;;;13.00;74.02
71976;BME280;68326;52.124;5.424;2023-05-01T09:20:31;101549.88;;;13.11;74.72
71976;BME280;68326;52.124;5.424;2023-05-01T09:22:57;101551.13;;;13.21;72.79
71976;BME280;68326;52.124;5.424;2023-05-01T09:25:24;101552.38;;;13.31;73.36
71976;BME280;68326;52.124;5.424;2023-05-01T09:27:51;101558.84;;;13.41;73.41
71976;BME280;68326;52.124;5.424;2023-05-01T09:33:06;101556.13;;;13.60;69.60
71976;BME280;68326;52.124;5.424;2023-05-01T09:35:53;101563.56;;;13.68;70.36
71976;BME280;68326;52.124;5.424;2023-05-01T09:38:24;101560.56;;;13.76;69.36
71976;BME280;68326;52.124;5.424;2023-05-01T09:41:02;101568.53;;;13.90;69.72
71976;BME280;68326;52.124;5.424;2023-05-01T09:43:29;101559.59;;;13.94;66.62
71976;BME280;68326;52.124;5.424;2023-05-01T09:46:05;101565.50;;;13.98;68.23
71976;BME280;68326;52.124;5.424;2023-05-01T09:48:32;101566.78;;;14.06;66.34
71976;BME280;68326;52.124;5.424;2023-05-01T09:51:18;101568.59;;;14.22;66.00
71976;BME280;68326;52.124;5.424;2023-05-01T09:53:45;101564.63;;;14.31;63.04
71976;BME280;68326;52.124;5.424;2023-05-01T09:56:12;101571.38;;;14.35;63.15
71976;BME280;68326;52.124;5.424;2023-05-01T09:58:38;101565.91;;;14.39;61.39
71976;BME280;68326;52.124;5.424;2023-05-01T10:01:05;101565.38;;;14.48;62.01
71976;BME280;68326;52.124;5.424;2023-05-01T10:03:33;101565.66;;;14.60;61.99
71976;BME280;68326;52.124;5.424;2023-05-01T10:05:59;101559.09;;;14.68;61.08
71976;BME280;68326;52.124;5.424;2023-05-01T10:08:54;101555.84;;;14.79;62.71
71976;BME280;68326;52.124;5.424;2023-05-01T10:11:20;101554.91;;;14.80;59.72
71976;BME280;68326;52.124;5.424;2023-05-01T10:14:08;101552.44;;;14.93;59.74
71976;BME280;68326;52.124;5.424;2023-05-01T10:16:36;101556.84;;;14.93;61.87
71976;BME280;68326;52.124;5.424;2023-05-01T10:19:04;101557.50;;;14.96;60.31
71976;BME280;68326;52.124;5.424;2023-05-01T10:21:32;101557.06;;;15.04;58.82
71976;BME280;68326;52.124;5.424;2023-05-01T10:24:00;101554.84;;;15.12;59.57
71976;BME280;68326;52.124;5.424;2023-05-01T10:26:28;101557.38;;;15.14;58.97
71976;BME280;68326;52.124;5.424;2023-05-01T10:28:55;101558.53;;;15.24;59.45
71976;BME280;68326;52.124;5.424;2023-05-01T10:31:24;101564.72;;;15.37;59.71
71976;BME280;68326;52.124;5.424;2023-05-01T10:33:55;101567.19;;;15.55;59.98
71976;BME280;68326;52.124;5.424;2023-05-01T10:36:46;101568.06;;;15.69;59.60
71976;BME280;68326;52.124;5.424;2023-05-01T10:39:35;101568.75;;;15.73;58.93
71976;BME280;68326;52.124;5.424;2023-05-01T10:42:07;101570.75;;;15.68;57.92
71976;BME280;68326;52.124;5.424;2023-05-01T10:44:37;101567.50;;;15.64;58.68
71976;BME280;68326;52.124;5.424;2023-05-01T10:50:10;101573.53;;;15.81;56.75
71976;BME280;68326;52.124;5.424;2023-05-01T10:55:41;101572.69;;;15.95;57.27
71976;BME280;68326;52.124;5.424;2023-05-01T10:58:11;101576.81;;;15.99;57.67
71976;BME280;68326;52.124;5.424;2023-05-01T11:00:37;101574.84;;;16.02;55.90
71976;BME280;68326;52.124;5.424;2023-05-01T11:08:28;101571.81;;;16.08;55.55
71976;BME280;68326;52.124;5.424;2023-05-01T11:10:56;101569.31;;;16.07;53.16
71976;BME280;68326;52.124;5.424;2023-05-01T11:14:00;101573.53;;;16.09;55.31
71976;BME280;68326;52.124;5.424;2023-05-01T11:19:09;101577.38;;;16.04;54.04
71976;BME280;68326;52.124;5.424;2023-05-01T11:21:37;101573.44;;;16.11;54.23
71976;BME280;68326;52.124;5.424;2023-05-01T11:24:06;101578.88;;;16.08;54.54
71976;BME280;68326;52.124;5.424;2023-05-01T11:26:40;101570.16;;;16.07;55.16
71976;BME280;68326;52.124;5.424;2023-05-01T11:29:09;101573.69;;;16.06;53.84
71976;BME280;68326;52.124;5.424;2023-05-01T11:31:36;101563.13;;;16.08;54.60
71976;BME280;68326;52.124;5.424;2023-05-01T11:34:03;101564.03;;;16.21;56.58
71976;BME280;68326;52.124;5.424;2023-05-01T11:36:48;101570.97;;;16.37;56.92
71976;BME280;68326;52.124;5.424;2023-05-01T11:39:15;101572.25;;;16.44;56.69
71976;BME280;68326;52.124;5.424;2023-05-01T11:41:45;101565.88;;;16.48;54.46
71976;BME280;68326;52.124;5.424;2023-05-01T11:44:15;101569.16;;;16.51;55.30
71976;BME280;68326;52.124;5.424;2023-05-01T11:46:42;101573.41;;;16.67;54.51
71976;BME280;68326;52.124;5.424;2023-05-01T11:49:09;101567.63;;;16.89;54.91
71976;BME280;68326;52.124;5.424;2023-05-01T11:51:36;101567.19;;;17.22;56.33
71976;BME280;68326;52.124;5.424;2023-05-01T11:54:07;101566.16;;;17.50;55.62
71976;BME280;68326;52.124;5.424;2023-05-01T11:56:36;101568.91;;;17.75;53.87
71976;BME280;68326;52.124;5.424;2023-05-01T11:59:10;101572.16;;;18.04;54.85
71976;BME280;68326;52.124;5.424;2023-05-01T12:01:39;101572.38;;;18.13;55.14
71976;BME280;68326;52.124;5.424;2023-05-01T12:04:06;101565.06;;;18.30;53.21
71976;BME280;68326;52.124;5.424;2023-05-01T12:06:37;101563.78;;;18.36;51.18
71976;BME280;68326;52.124;5.424;2023-05-01T12:09:22;101578.97;;;18.32;53.07
71976;BME280;68326;52.124;5.424;2023-05-01T12:11:50;101574.97;;;18.26;52.29
71976;BME280;68326;52.124;5.424;2023-05-01T12:14:19;101577.94;;;18.22;52.89
71976;BME280;68326;52.124;5.424;2023-05-01T12:16:49;101570.56;;;18.14;53.29
71976;BME280;68326;52.124;5.424;2023-05-01T12:19:16;101567.59;;;18.19;53.90
71976;BME280;68326;52.124;5.424;2023-05-01T12:21:43;101579.22;;;18.16;54.39
71976;BME280;68326;52.124;5.424;2023-05-01T12:24:11;101572.19;;;17.91;54.60
71976;BME280;68326;52.124;5.424;2023-05-01T12:26:38;101577.75;;;17.61;55.25
71976;BME280;68326;52.124;5.424;2023-05-01T12:29:06;101580.59;;;17.32;55.28
71976;BME280;68326;52.124;5.424;2023-05-01T12:31:34;101585.66;;;17.08;57.57
71976;BME280;68326;52.124;5.424;2023-05-01T12:34:03;101590.44;;;16.88;57.43
71976;BME280;68326;52.124;5.424;2023-05-01T12:36:32;101579.28;;;16.58;59.10
71976;BME280;68326;52.124;5.424;2023-05-01T12:39:04;101592.16;;;16.34;58.84
71976;BME280;68326;52.124;5.424;2023-05-01T12:41:39;101591.16;;;16.22;60.50
71976;BME280;68326;52.124;5.424;2023-05-01T12:44:26;101582.91;;;16.14;59.51
71976;BME280;68326;52.124;5.424;2023-05-01T12:46:54;101589.28;;;15.95;59.20
71976;BME280;68326;52.124;5.424;2023-05-01T12:49:22;101592.84;;;15.80;61.06
71976;BME280;68326;52.124;5.424;2023-05-01T12:51:50;101590.88;;;15.83;60.56
71976;BME280;68326;52.124;5.424;2023-05-01T12:54:25;101591.34;;;15.90;61.24
71976;BME280;68326;52.124;5.424;2023-05-01T12:56:52;101590.88;;;15.83;61.52
71976;BME280;68326;52.124;5.424;2023-05-01T12:59:20;101585.53;;;15.85;61.39
71976;BME280;68326;52.124;5.424;2023-05-01T13:01:47;101584.97;;;15.80;62.79
71976;BME280;68326;52.124;5.424;2023-05-01T13:04:21;101586.63;;;15.81;60.94
71976;BME280;68326;52.124;5.424;2023-05-01T13:06:47;101582.78;;;15.72;62.50
71976;BME280;68326;52.124;5.424;2023-05-01T13:09:14;101584.00;;;15.66;62.86
71976;BME280;68326;52.124;5.424;2023-05-01T13:12:04;101587.53;;;15.65;62.40
71976;BME280;68326;52.124;5.424;2023-05-01T13:14:38;101584.16;;;15.63;62.99
71976;BME280;68326;52.124;5.424;2023-05-01T13:17:09;101577.25;;;15.62;62.08
71976;BME280;68326;52.124;5.424;2023-05-01T13:19:36;101580.69;;;15.63;63.34
71976;BME280;68326;52.124;5.424;2023-05-01T13:22:04;101578.72;;;15.52;62.81
71976;BME280;68326;52.124;5.424;2023-05-01T13:24:41;101581.91;;;15.43;64.47
71976;BME280;68326;52.124;5.424;2023-05-01T13:27:10;101575.66;;;15.29;64.99
71976;BME280;68326;52.124;5.424;2023-05-01T13:29:38;101577.09;;;15.35;64.15
71976;BME280;68326;52.124;5.424;2023-05-01T13:32:10;101583.44;;;15.31;66.94